createdAt,value
2022-10-04T00:01:55.142Z,22.70
2022-10-04T00:07:11.998Z,21.30
2022-10-04T00:12:28.051Z,20.85
2022-10-04T00:17:31.949Z,27.88
2022-10-04T00:22:33.582Z,25.52
2022-10-04T00:27:36.908Z,29.48
2022-10-04T00:32:38.402Z,26.13
2022-10-04T00:38:16.995Z,25.27
2022-10-04T00:43:29.244Z,22.65
2022-10-04T00:48:34.117Z,33.63
2022-10-04T00:54:26.854Z,28.70
2022-10-04T00:59:31.381Z,24.77
2022-10-04T01:04:53.137Z,27.33
2022-10-04T01:09:59.975Z,20.23
2022-10-04T01:20:31.700Z,24.25
2022-10-04T01:25:46.761Z,21.92
2022-10-04T01:30:48.804Z,27.08
2022-10-04T01:35:50.664Z,23.40
2022-10-04T01:40:57.480Z,29.02
2022-10-04T01:51:17.048Z,25.40
2022-10-04T01:56:24.340Z,23.25
2022-10-04T02:01:34.387Z,22.95
2022-10-04T02:06:39.739Z,26.27
2022-10-04T02:11:44.545Z,21.73
2022-10-04T02:16:49.394Z,28.30
2022-10-04T02:21:52.212Z,22.20
2022-10-04T02:26:53.835Z,24.98
2022-10-04T02:31:55.433Z,23.70
2022-10-04T02:36:57.351Z,26.27
2022-10-04T02:42:35.202Z,22.85
2022-10-04T02:47:48.239Z,28.35
2022-10-04T02:52:55.854Z,21.45
2022-10-04T02:57:58.599Z,20.77
2022-10-04T03:03:09.304Z,24.02
2022-10-04T03:08:11.284Z,29.23
2022-10-04T03:13:14.552Z,27.05
2022-10-04T03:18:17.963Z,25.50
2022-10-04T03:23:21.247Z,26.15
2022-10-04T03:28:22.952Z,26.38
2022-10-04T03:33:29.454Z,23.27
2022-10-04T03:38:35.030Z,26.52
2022-10-04T03:43:42.583Z,29.27
2022-10-04T03:48:48.087Z,21.92
2022-10-04T03:53:53.084Z,26.90
2022-10-04T03:58:55.867Z,25.08
2022-10-04T04:04:56.117Z,28.30
2022-10-04T04:10:23.546Z,28.60
2022-10-04T04:20:38.241Z,24.25
2022-10-04T04:25:46.641Z,24.20
2022-10-04T04:30:53.178Z,26.70
2022-10-04T04:36:02.516Z,26.48
2022-10-04T04:41:10.990Z,27.15
2022-10-04T04:46:26.993Z,22.27
2022-10-04T04:51:31.770Z,25.85
2022-10-04T04:56:34.701Z,26.55
2022-10-04T05:01:43.377Z,26.88
2022-10-04T05:06:47.363Z,26.58
2022-10-04T05:11:49.991Z,27.52
2022-10-04T05:16:54.234Z,22.58
2022-10-04T05:21:59.347Z,26.00
2022-10-04T05:27:23.159Z,30.63
2022-10-04T05:32:55.698Z,23.25
2022-10-04T05:38:24.371Z,24.40
2022-10-04T05:43:37.541Z,23.05
2022-10-04T05:48:41.594Z,30.65
2022-10-04T05:53:43.221Z,24.23
2022-10-04T05:59:26.357Z,30.55
2022-10-04T06:05:02.455Z,23.55
2022-10-04T06:10:24.984Z,26.83
2022-10-04T06:15:38.759Z,25.48
2022-10-04T06:20:51.686Z,22.00
2022-10-04T06:25:58.700Z,20.30
2022-10-04T06:31:22.030Z,24.45
2022-10-04T06:36:45.521Z,23.08
2022-10-04T06:41:47.144Z,18.73
2022-10-04T06:47:13.568Z,24.30
2022-10-04T06:52:29.325Z,22.20
2022-10-04T06:58:05.043Z,17.52
2022-10-04T07:03:21.191Z,13.88
2022-10-04T07:08:51.787Z,13.97
2022-10-04T07:14:03.438Z,8.55
2022-10-04T07:19:26.812Z,12.45
2022-10-04T07:24:38.130Z,10.98
2022-10-04T07:29:43.045Z,8.02
2022-10-04T07:34:44.472Z,11.25
2022-10-04T07:39:51.587Z,8.65
2022-10-04T07:45:19.011Z,10.50
2022-10-04T07:50:36.597Z,11.02
2022-10-04T07:55:51.479Z,10.35
2022-10-04T08:01:01.500Z,9.07
2022-10-04T08:06:12.694Z,10.13
2022-10-04T08:11:57.345Z,8.65
2022-10-04T08:17:15.465Z,13.60
2022-10-04T08:22:29.662Z,7.75
2022-10-04T08:27:43.225Z,11.23
2022-10-04T08:33:27.617Z,6.40
2022-10-04T08:38:34.984Z,10.68
2022-10-04T08:43:56.282Z,8.52
2022-10-04T08:49:55.320Z,6.15
2022-10-04T08:55:29.208Z,7.40
2022-10-04T09:00:52.396Z,8.10
2022-10-04T09:05:59.309Z,4.85
2022-10-04T09:11:22.085Z,5.50
2022-10-04T09:16:46.474Z,6.45
2022-10-04T09:21:56.821Z,6.70
2022-10-04T09:27:04.430Z,5.95
2022-10-04T09:32:27.472Z,8.27
2022-10-04T09:38:00.147Z,5.68
2022-10-04T09:43:21.138Z,4.68
2022-10-04T09:48:32.672Z,5.13
2022-10-04T09:53:42.224Z,6.00
2022-10-04T09:59:09.486Z,5.75
2022-10-04T10:04:38.084Z,4.47
2022-10-04T10:10:06.328Z,6.50
2022-10-04T10:15:22.495Z,3.47
2022-10-04T10:26:03.979Z,4.68
2022-10-04T10:31:32.400Z,6.65
2022-10-04T10:37:09.348Z,4.72
2022-10-04T10:42:32.879Z,6.90
2022-10-04T10:47:52.369Z,5.10
2022-10-04T10:53:11.839Z,4.88
2022-10-04T10:58:47.561Z,4.45
2022-10-04T11:04:13.917Z,4.80
2022-10-04T11:09:51.060Z,7.28
2022-10-04T11:15:05.733Z,5.43
2022-10-04T11:20:32.923Z,6.55
2022-10-04T11:25:57.430Z,4.82
2022-10-04T11:30:58.977Z,2.90
2022-10-04T11:36:26.678Z,3.53
2022-10-04T11:42:01.143Z,3.17
2022-10-04T11:47:24.402Z,6.15
2022-10-04T11:52:28.558Z,2.97
2022-10-04T11:57:47.990Z,5.97
2022-10-04T12:03:04.589Z,5.32
2022-10-04T12:08:30.800Z,3.47
2022-10-04T12:13:57.475Z,3.10
2022-10-04T12:19:29.724Z,3.72
2022-10-04T12:25:02.121Z,3.33
2022-10-04T12:30:21.997Z,5.55
2022-10-04T12:35:30.711Z,3.00
2022-10-04T12:40:42.244Z,5.20
2022-10-04T12:46:21.879Z,4.13
2022-10-04T12:51:32.476Z,3.47
2022-10-04T12:56:51.011Z,3.75
2022-10-04T13:02:24.747Z,5.57
2022-10-04T13:07:35.338Z,2.80
2022-10-04T13:12:55.045Z,3.55
2022-10-04T13:18:22.390Z,5.10
2022-10-04T13:23:35.865Z,2.95
2022-10-04T13:28:50.435Z,5.07
2022-10-04T13:34:12.151Z,5.07
2022-10-04T13:39:25.522Z,3.65
2022-10-04T13:44:59.080Z,4.40
2022-10-04T13:50:15.849Z,3.40
2022-10-04T13:55:40.303Z,3.88
2022-10-04T14:01:21.926Z,4.05
2022-10-04T14:06:38.466Z,5.28
2022-10-04T14:12:05.973Z,5.07
2022-10-04T14:17:49.203Z,4.97
2022-10-04T14:23:08.807Z,7.93
2022-10-04T14:28:35.177Z,5.32
2022-10-04T14:33:47.047Z,5.88
2022-10-04T14:39:13.162Z,3.78
2022-10-04T14:44:26.157Z,3.78
2022-10-04T14:49:40.446Z,4.82
2022-10-04T14:55:08.024Z,5.50
2022-10-04T15:00:47.964Z,3.85
2022-10-04T15:05:52.406Z,4.32
2022-10-04T15:11:09.556Z,3.47
2022-10-04T15:16:36.240Z,5.70
2022-10-04T15:21:52.590Z,3.90
2022-10-04T15:27:06.084Z,4.50
2022-10-04T15:32:35.932Z,4.72
2022-10-04T15:37:49.377Z,4.47
2022-10-04T15:43:02.881Z,6.22
2022-10-04T15:48:07.345Z,5.47
2022-10-04T15:53:46.113Z,3.47
2022-10-04T15:59:06.135Z,3.70
2022-10-04T16:04:16.546Z,7.07
2022-10-04T16:09:29.849Z,7.10
2022-10-04T16:14:43.287Z,4.47
2022-10-04T16:20:25.859Z,5.68
2022-10-04T16:25:38.310Z,7.72
2022-10-04T16:30:59.488Z,7.20
2022-10-04T16:36:08.444Z,4.53
2022-10-04T16:41:15.892Z,9.02
2022-10-04T16:46:37.275Z,7.75
2022-10-04T16:51:38.861Z,10.77
2022-10-04T16:56:52.608Z,10.23
2022-10-04T17:02:36.728Z,33.10
2022-10-04T17:08:27.560Z,9.52
2022-10-04T17:13:47.610Z,9.10
2022-10-04T17:19:26.425Z,8.20
2022-10-04T17:24:33.660Z,5.65
2022-10-04T17:29:50.554Z,4.18
2022-10-04T17:40:27.156Z,7.90
2022-10-04T17:45:46.835Z,4.78
2022-10-04T17:51:09.770Z,8.48
2022-10-04T17:56:13.548Z,11.18
2022-10-04T18:01:44.717Z,8.88
2022-10-04T18:06:53.017Z,6.20
2022-10-04T18:11:59.609Z,4.72
2022-10-04T18:17:06.313Z,6.53
2022-10-04T18:27:25.246Z,6.45
2022-10-04T18:32:26.788Z,3.90
2022-10-04T18:37:34.859Z,5.68
2022-10-04T18:42:40.881Z,8.10
2022-10-04T18:47:42.452Z,7.57
2022-10-04T18:53:13.314Z,5.63
2022-10-04T18:58:29.652Z,4.85
2022-10-04T19:03:40.821Z,4.90
2022-10-04T19:09:06.833Z,6.43
2022-10-04T19:14:17.193Z,5.95
2022-10-04T19:19:42.190Z,6.15
2022-10-04T19:25:10.018Z,5.43
2022-10-04T19:30:30.660Z,7.07
2022-10-04T19:35:53.660Z,5.85
2022-10-04T19:41:16.694Z,7.70
2022-10-04T19:46:24.312Z,6.60
2022-10-04T19:51:43.525Z,6.85
2022-10-04T19:56:53.857Z,6.78
2022-10-04T20:01:55.753Z,5.53
2022-10-04T20:06:59.254Z,4.80
2022-10-04T20:12:01.260Z,6.97
2022-10-04T20:17:04.446Z,7.10
2022-10-04T20:22:08.760Z,8.73
2022-10-04T20:27:25.560Z,9.23
2022-10-04T20:32:27.096Z,8.30
2022-10-04T20:37:43.810Z,8.63
2022-10-04T20:43:14.380Z,5.65
2022-10-04T20:48:22.093Z,5.53
2022-10-04T20:53:31.598Z,8.65
2022-10-04T20:58:34.622Z,6.53
2022-10-04T21:03:36.145Z,8.60
2022-10-04T21:08:38.799Z,9.20
2022-10-04T21:13:55.458Z,9.02
2022-10-04T21:19:32.031Z,8.05
2022-10-04T21:24:54.355Z,9.20
2022-10-04T21:29:56.750Z,9.43
2022-10-04T21:34:58.296Z,9.25
2022-10-04T21:39:59.963Z,11.70
2022-10-04T21:45:01.574Z,6.93
2022-10-04T21:50:03.253Z,14.38
2022-10-04T21:55:05.214Z,9.93
2022-10-04T22:00:07.516Z,9.15
2022-10-04T22:05:13.901Z,7.55
2022-10-04T22:10:15.546Z,8.60
2022-10-04T22:15:17.136Z,7.85
2022-10-04T22:20:18.673Z,13.05
2022-10-04T22:25:23.053Z,9.15
2022-10-04T22:30:29.769Z,10.13
2022-10-04T22:35:31.462Z,10.55
2022-10-04T22:40:33.159Z,10.07
2022-10-04T22:45:34.759Z,12.15
2022-10-04T22:50:37.338Z,12.45
2022-10-04T22:55:40.514Z,14.32
2022-10-04T23:00:43.439Z,11.65
2022-10-04T23:05:44.958Z,13.02
2022-10-04T23:10:46.573Z,13.43
2022-10-04T23:15:48.151Z,13.65
2022-10-04T23:20:55.577Z,11.90
2022-10-04T23:25:57.216Z,14.10
2022-10-04T23:31:04.971Z,12.55
2022-10-04T23:36:13.831Z,14.80
2022-10-04T23:41:18.001Z,15.25
2022-10-04T23:46:23.385Z,14.40
2022-10-04T23:51:25.006Z,17.60
2022-10-04T23:56:29.232Z,17.23
